Terminal Aerodrome Forecast
Issued by NWS Paducah, KY

Home | Current Version | Previous Version | Text Only | Print | Product List | Glossary On
Versions: 1 2 3 4 5 6 7 8 9 10 11 12 13 14 15 16 17 18 19 20 21 22
000
FTUS43 KPAH 181500 AAA
TAFEVV
TAF AMD
KEVV 181514Z 1815/1912 28005KT P6SM OVC005
     FM181800 29005KT P6SM SCT015 BKN030
     FM190000 00000KT P6SM SCT035
     FM190600 00000KT 5SM BR SCT008=

USA.gov is the U.S. government's official web portal to all federal, state and local government web resources and services.